sensor_id;sensor_type;location;lat;lon;timestamp;P1;durP1;ratioP1;P2;durP2;ratioP2
12784;SDS011;6456;42.680;23.260;2022-08-30T00:02:18;9.10;;;8.10;;
12784;SDS011;6456;42.680;23.260;2022-08-30T00:04:45;10.50;;;8.60;;
12784;SDS011;6456;42.680;23.260;2022-08-30T00:07:16;10.23;;;8.93;;
12784;SDS011;6456;42.680;23.260;2022-08-30T00:09:43;9.77;;;8.87;;
12784;SDS011;6456;42.680;23.260;2022-08-30T00:15:22;12.67;;;11.40;;
12784;SDS011;6456;42.680;23.260;2022-08-30T00:18:02;11.87;;;10.13;;
12784;SDS011;6456;42.680;23.260;2022-08-30T00:20:39;11.13;;;9.13;;
12784;SDS011;6456;42.680;23.260;2022-08-30T00:23:19;11.70;;;9.43;;
12784;SDS011;6456;42.680;23.260;2022-08-30T00:25:58;10.07;;;8.90;;
12784;SDS011;6456;42.680;23.260;2022-08-30T00:28:41;10.07;;;9.07;;
12784;SDS011;6456;42.680;23.260;2022-08-30T00:31:08;10.70;;;9.57;;
12784;SDS011;6456;42.680;23.260;2022-08-30T00:33:35;10.43;;;9.43;;
12784;SDS011;6456;42.680;23.260;2022-08-30T00:36:02;10.93;;;9.47;;
12784;SDS011;6456;42.680;23.260;2022-08-30T00:38:33;9.93;;;8.87;;
12784;SDS011;6456;42.680;23.260;2022-08-30T00:41:00;10.73;;;9.10;;
12784;SDS011;6456;42.680;23.260;2022-08-30T00:43:30;18.77;;;10.90;;
12784;SDS011;6456;42.680;23.260;2022-08-30T00:45:59;11.97;;;9.20;;
12784;SDS011;6456;42.680;23.260;2022-08-30T00:48:31;11.67;;;8.97;;
12784;SDS011;6456;42.680;23.260;2022-08-30T00:51:03;10.57;;;9.63;;
12784;SDS011;6456;42.680;23.260;2022-08-30T00:53:35;12.10;;;10.70;;
12784;SDS011;6456;42.680;23.260;2022-08-30T00:56:08;10.40;;;9.40;;
12784;SDS011;6456;42.680;23.260;2022-08-30T00:58:37;10.77;;;9.67;;
12784;SDS011;6456;42.680;23.260;2022-08-30T01:01:11;13.23;;;10.53;;
12784;SDS011;6456;42.680;23.260;2022-08-30T01:03:39;12.20;;;10.43;;
12784;SDS011;6456;42.680;23.260;2022-08-30T01:06:07;12.20;;;10.37;;
12784;SDS011;6456;42.680;23.260;2022-08-30T01:08:36;15.73;;;10.30;;
12784;SDS011;6456;42.680;23.260;2022-08-30T01:11:05;11.30;;;10.20;;
12784;SDS011;6456;42.680;23.260;2022-08-30T01:13:33;12.97;;;10.13;;
12784;SDS011;6456;42.680;23.260;2022-08-30T01:16:01;10.23;;;9.33;;
12784;SDS011;6456;42.680;23.260;2022-08-30T01:18:29;10.90;;;9.87;;
12784;SDS011;6456;42.680;23.260;2022-08-30T01:20:58;11.53;;;10.33;;
12784;SDS011;6456;42.680;23.260;2022-08-30T01:23:33;12.40;;;10.23;;
12784;SDS011;6456;42.680;23.260;2022-08-30T01:26:02;11.77;;;10.57;;
12784;SDS011;6456;42.680;23.260;2022-08-30T01:28:30;11.23;;;9.70;;
12784;SDS011;6456;42.680;23.260;2022-08-30T01:30:58;11.90;;;10.63;;
12784;SDS011;6456;42.680;23.260;2022-08-30T01:33:25;12.10;;;10.80;;
12784;SDS011;6456;42.680;23.260;2022-08-30T01:35:54;12.50;;;11.00;;
12784;SDS011;6456;42.680;23.260;2022-08-30T01:38:23;11.80;;;10.60;;
12784;SDS011;6456;42.680;23.260;2022-08-30T01:40:57;12.07;;;10.97;;
12784;SDS011;6456;42.680;23.260;2022-08-30T01:43:37;12.53;;;11.23;;
12784;SDS011;6456;42.680;23.260;2022-08-30T01:46:04;11.70;;;10.60;;
12784;SDS011;6456;42.680;23.260;2022-08-30T01:48:33;12.27;;;10.23;;
12784;SDS011;6456;42.680;23.260;2022-08-30T01:51:00;12.23;;;11.10;;
12784;SDS011;6456;42.680;23.260;2022-08-30T01:53:27;11.70;;;10.50;;
12784;SDS011;6456;42.680;23.260;2022-08-30T01:55:54;11.17;;;10.17;;
12784;SDS011;6456;42.680;23.260;2022-08-30T01:58:25;11.10;;;10.10;;
12784;SDS011;6456;42.680;23.260;2022-08-30T02:00:53;11.17;;;10.07;;
12784;SDS011;6456;42.680;23.260;2022-08-30T02:03:21;11.53;;;10.43;;
12784;SDS011;6456;42.680;23.260;2022-08-30T02:05:48;12.10;;;10.30;;
12784;SDS011;6456;42.680;23.260;2022-08-30T02:08:16;10.93;;;9.93;;
12784;SDS011;6456;42.680;23.260;2022-08-30T02:10:43;13.20;;;10.53;;
12784;SDS011;6456;42.680;23.260;2022-08-30T02:13:12;12.07;;;10.93;;
12784;SDS011;6456;42.680;23.260;2022-08-30T02:15:39;11.83;;;10.63;;
12784;SDS011;6456;42.680;23.260;2022-08-30T02:18:06;11.57;;;10.47;;
12784;SDS011;6456;42.680;23.260;2022-08-30T02:20:35;14.27;;;11.57;;
12784;SDS011;6456;42.680;23.260;2022-08-30T02:23:08;11.87;;;10.63;;
12784;SDS011;6456;42.680;23.260;2022-08-30T02:25:35;11.30;;;10.20;;
12784;SDS011;6456;42.680;23.260;2022-08-30T02:28:11;11.37;;;10.37;;
12784;SDS011;6456;42.680;23.260;2022-08-30T02:30:40;13.77;;;10.97;;
12784;SDS011;6456;42.680;23.260;2022-08-30T02:33:09;11.80;;;10.60;;
12784;SDS011;6456;42.680;23.260;2022-08-30T02:35:45;12.23;;;10.90;;
12784;SDS011;6456;42.680;23.260;2022-08-30T02:38:13;13.37;;;11.40;;
12784;SDS011;6456;42.680;23.260;2022-08-30T02:40:44;13.27;;;10.83;;
12784;SDS011;6456;42.680;23.260;2022-08-30T02:43:12;14.60;;;11.57;;
12784;SDS011;6456;42.680;23.260;2022-08-30T02:45:40;13.70;;;12.00;;
12784;SDS011;6456;42.680;23.260;2022-08-30T02:48:07;13.73;;;12.37;;
12784;SDS011;6456;42.680;23.260;2022-08-30T02:50:37;12.83;;;11.40;;
12784;SDS011;6456;42.680;23.260;2022-08-30T02:53:05;15.83;;;10.80;;
12784;SDS011;6456;42.680;23.260;2022-08-30T02:55:33;11.30;;;10.10;;
12784;SDS011;6456;42.680;23.260;2022-08-30T02:58:00;11.80;;;10.60;;
12784;SDS011;6456;42.680;23.260;2022-08-30T03:00:28;11.67;;;10.47;;
12784;SDS011;6456;42.680;23.260;2022-08-30T03:02:58;10.73;;;9.70;;
12784;SDS011;6456;42.680;23.260;2022-08-30T03:05:28;11.13;;;10.03;;
12784;SDS011;6456;42.680;23.260;2022-08-30T03:07:55;11.33;;;10.00;;
12784;SDS011;6456;42.680;23.260;2022-08-30T03:10:24;11.93;;;9.70;;
12784;SDS011;6456;42.680;23.260;2022-08-30T03:12:53;11.50;;;10.03;;
12784;SDS011;6456;42.680;23.260;2022-08-30T03:15:24;12.00;;;10.80;;
12784;SDS011;6456;42.680;23.260;2022-08-30T03:17:57;13.27;;;10.77;;
12784;SDS011;6456;42.680;23.260;2022-08-30T03:20:32;12.50;;;11.13;;
12784;SDS011;6456;42.680;23.260;2022-08-30T03:23:03;11.37;;;10.27;;
12784;SDS011;6456;42.680;23.260;2022-08-30T03:25:33;15.13;;;10.67;;
12784;SDS011;6456;42.680;23.260;2022-08-30T03:28:00;12.10;;;10.90;;
12784;SDS011;6456;42.680;23.260;2022-08-30T03:30:28;12.47;;;11.20;;
12784;SDS011;6456;42.680;23.260;2022-08-30T03:32:56;13.93;;;10.97;;
12784;SDS011;6456;42.680;23.260;2022-08-30T03:35:23;12.80;;;11.50;;
12784;SDS011;6456;42.680;23.260;2022-08-30T03:37:50;14.20;;;12.73;;
12784;SDS011;6456;42.680;23.260;2022-08-30T03:40:18;13.03;;;11.83;;
12784;SDS011;6456;42.680;23.260;2022-08-30T03:42:46;14.63;;;13.20;;
12784;SDS011;6456;42.680;23.260;2022-08-30T03:45:13;13.83;;;12.40;;
12784;SDS011;6456;42.680;23.260;2022-08-30T03:47:42;14.07;;;12.77;;
12784;SDS011;6456;42.680;23.260;2022-08-30T03:50:11;13.73;;;12.43;;
12784;SDS011;6456;42.680;23.260;2022-08-30T03:52:39;15.60;;;12.83;;
12784;SDS011;6456;42.680;23.260;2022-08-30T03:55:07;14.47;;;12.97;;
12784;SDS011;6456;42.680;23.260;2022-08-30T03:57:34;14.77;;;13.10;;
12784;SDS011;6456;42.680;23.260;2022-08-30T04:00:02;15.73;;;13.73;;
12784;SDS011;6456;42.680;23.260;2022-08-30T04:02:30;15.73;;;14.17;;
12784;SDS011;6456;42.680;23.260;2022-08-30T04:04:57;15.60;;;14.03;;
12784;SDS011;6456;42.680;23.260;2022-08-30T04:07:25;15.33;;;13.70;;
12784;SDS011;6456;42.680;23.260;2022-08-30T04:09:52;14.80;;;13.40;;
12784;SDS011;6456;42.680;23.260;2022-08-30T04:12:19;16.80;;;13.47;;
12784;SDS011;6456;42.680;23.260;2022-08-30T04:14:46;16.53;;;13.77;;
12784;SDS011;6456;42.680;23.260;2022-08-30T04:17:13;15.47;;;13.63;;
12784;SDS011;6456;42.680;23.260;2022-08-30T04:19:40;18.00;;;14.20;;
12784;SDS011;6456;42.680;23.260;2022-08-30T04:22:07;15.90;;;14.17;;
12784;SDS011;6456;42.680;23.260;2022-08-30T04:24:35;15.67;;;13.47;;
12784;SDS011;6456;42.680;23.260;2022-08-30T04:27:02;16.17;;;13.90;;
12784;SDS011;6456;42.680;23.260;2022-08-30T04:29:30;16.90;;;14.37;;
12784;SDS011;6456;42.680;23.260;2022-08-30T04:31:56;16.20;;;13.60;;
12784;SDS011;6456;42.680;23.260;2022-08-30T04:34:23;15.67;;;13.87;;
12784;SDS011;6456;42.680;23.260;2022-08-30T04:36:50;16.77;;;12.93;;
12784;SDS011;6456;42.680;23.260;2022-08-30T04:39:17;15.13;;;13.43;;
12784;SDS011;6456;42.680;23.260;2022-08-30T04:41:45;16.13;;;13.47;;
12784;SDS011;6456;42.680;23.260;2022-08-30T04:44:13;14.90;;;13.40;;
12784;SDS011;6456;42.680;23.260;2022-08-30T04:46:40;15.70;;;14.10;;
12784;SDS011;6456;42.680;23.260;2022-08-30T04:49:07;16.47;;;13.77;;
12784;SDS011;6456;42.680;23.260;2022-08-30T04:51:34;16.07;;;13.47;;
12784;SDS011;6456;42.680;23.260;2022-08-30T04:54:01;14.93;;;13.53;;
12784;SDS011;6456;42.680;23.260;2022-08-30T04:56:27;18.13;;;14.23;;
12784;SDS011;6456;42.680;23.260;2022-08-30T04:58:56;15.13;;;13.67;;
12784;SDS011;6456;42.680;23.260;2022-08-30T05:01:23;15.37;;;13.77;;
12784;SDS011;6456;42.680;23.260;2022-08-30T05:03:51;16.57;;;14.27;;
12784;SDS011;6456;42.680;23.260;2022-08-30T05:06:20;15.47;;;13.97;;
12784;SDS011;6456;42.680;23.260;2022-08-30T05:08:48;16.60;;;14.83;;
12784;SDS011;6456;42.680;23.260;2022-08-30T05:11:16;15.53;;;13.73;;
12784;SDS011;6456;42.680;23.260;2022-08-30T05:13:43;17.23;;;14.63;;
12784;SDS011;6456;42.680;23.260;2022-08-30T05:16:11;16.13;;;13.80;;
12784;SDS011;6456;42.680;23.260;2022-08-30T05:18:41;16.90;;;15.00;;
12784;SDS011;6456;42.680;23.260;2022-08-30T05:21:10;19.93;;;15.03;;
12784;SDS011;6456;42.680;23.260;2022-08-30T05:23:40;20.97;;;14.70;;
12784;SDS011;6456;42.680;23.260;2022-08-30T05:26:09;19.43;;;16.70;;
12784;SDS011;6456;42.680;23.260;2022-08-30T05:28:38;27.37;;;15.53;;
12784;SDS011;6456;42.680;23.260;2022-08-30T05:31:12;20.57;;;15.23;;
12784;SDS011;6456;42.680;23.260;2022-08-30T05:33:40;25.53;;;16.33;;
12784;SDS011;6456;42.680;23.260;2022-08-30T05:36:11;20.87;;;14.83;;
12784;SDS011;6456;42.680;23.260;2022-08-30T05:38:39;18.47;;;14.03;;
12784;SDS011;6456;42.680;23.260;2022-08-30T05:41:06;19.37;;;14.93;;
12784;SDS011;6456;42.680;23.260;2022-08-30T05:43:33;21.70;;;14.87;;
12784;SDS011;6456;42.680;23.260;2022-08-30T05:46:02;15.23;;;13.93;;
12784;SDS011;6456;42.680;23.260;2022-08-30T05:48:32;16.83;;;14.20;;
12784;SDS011;6456;42.680;23.260;2022-08-30T05:51:00;16.37;;;14.67;;
12784;SDS011;6456;42.680;23.260;2022-08-30T05:53:29;18.87;;;16.20;;
12784;SDS011;6456;42.680;23.260;2022-08-30T05:55:56;23.03;;;14.87;;
12784;SDS011;6456;42.680;23.260;2022-08-30T05:58:22;23.77;;;18.73;;
12784;SDS011;6456;42.680;23.260;2022-08-30T06:00:49;19.03;;;16.27;;
12784;SDS011;6456;42.680;23.260;2022-08-30T06:03:16;27.83;;;16.33;;
12784;SDS011;6456;42.680;23.260;2022-08-30T06:05:44;16.40;;;14.50;;
12784;SDS011;6456;42.680;23.260;2022-08-30T06:08:11;17.57;;;14.50;;
12784;SDS011;6456;42.680;23.260;2022-08-30T06:10:38;16.70;;;13.30;;
12784;SDS011;6456;42.680;23.260;2022-08-30T06:13:05;17.30;;;14.23;;
12784;SDS011;6456;42.680;23.260;2022-08-30T06:15:32;16.60;;;14.43;;
12784;SDS011;6456;42.680;23.260;2022-08-30T06:17:59;17.33;;;13.83;;
12784;SDS011;6456;42.680;23.260;2022-08-30T06:20:26;19.43;;;13.67;;
12784;SDS011;6456;42.680;23.260;2022-08-30T06:22:55;15.37;;;13.90;;
12784;SDS011;6456;42.680;23.260;2022-08-30T06:25:22;15.80;;;14.30;;
12784;SDS011;6456;42.680;23.260;2022-08-30T06:27:49;16.23;;;14.60;;
12784;SDS011;6456;42.680;23.260;2022-08-30T06:30:16;16.43;;;14.80;;
12784;SDS011;6456;42.680;23.260;2022-08-30T06:32:43;17.27;;;15.33;;
12784;SDS011;6456;42.680;23.260;2022-08-30T06:35:10;16.67;;;14.90;;
12784;SDS011;6456;42.680;23.260;2022-08-30T06:37:37;16.73;;;14.83;;
12784;SDS011;6456;42.680;23.260;2022-08-30T06:40:06;16.40;;;14.63;;
12784;SDS011;6456;42.680;23.260;2022-08-30T06:42:33;16.97;;;14.83;;
12784;SDS011;6456;42.680;23.260;2022-08-30T06:45:00;17.97;;;15.33;;
12784;SDS011;6456;42.680;23.260;2022-08-30T06:47:28;16.37;;;14.67;;
12784;SDS011;6456;42.680;23.260;2022-08-30T06:49:55;17.63;;;15.70;;
12784;SDS011;6456;42.680;23.260;2022-08-30T06:52:23;18.27;;;15.43;;
12784;SDS011;6456;42.680;23.260;2022-08-30T06:54:50;15.83;;;14.33;;
12784;SDS011;6456;42.680;23.260;2022-08-30T06:57:20;25.77;;;15.60;;
12784;SDS011;6456;42.680;23.260;2022-08-30T06:59:46;17.83;;;15.43;;
12784;SDS011;6456;42.680;23.260;2022-08-30T07:02:13;18.57;;;15.53;;
12784;SDS011;6456;42.680;23.260;2022-08-30T07:04:40;23.40;;;17.53;;
12784;SDS011;6456;42.680;23.260;2022-08-30T07:07:10;26.27;;;18.27;;
12784;SDS011;6456;42.680;23.260;2022-08-30T07:09:37;21.53;;;18.70;;
12784;SDS011;6456;42.680;23.260;2022-08-30T07:12:07;21.50;;;17.57;;
12784;SDS011;6456;42.680;23.260;2022-08-30T07:14:37;19.17;;;15.87;;
12784;SDS011;6456;42.680;23.260;2022-08-30T07:17:04;18.17;;;16.20;;
12784;SDS011;6456;42.680;23.260;2022-08-30T07:19:51;18.93;;;16.90;;
12784;SDS011;6456;42.680;23.260;2022-08-30T07:22:18;19.33;;;17.23;;
12784;SDS011;6456;42.680;23.260;2022-08-30T07:24:48;19.60;;;16.90;;
12784;SDS011;6456;42.680;23.260;2022-08-30T07:27:15;18.77;;;16.90;;
12784;SDS011;6456;42.680;23.260;2022-08-30T07:29:43;19.40;;;17.40;;
12784;SDS011;6456;42.680;23.260;2022-08-30T07:32:10;18.33;;;16.35;;
12784;SDS011;6456;42.680;23.260;2022-08-30T07:34:38;18.97;;;16.33;;
12784;SDS011;6456;42.680;23.260;2022-08-30T07:37:04;22.03;;;18.90;;
12784;SDS011;6456;42.680;23.260;2022-08-30T07:39:32;20.53;;;18.37;;
12784;SDS011;6456;42.680;23.260;2022-08-30T07:41:59;21.58;;;19.20;;
12784;SDS011;6456;42.680;23.260;2022-08-30T07:44:28;21.15;;;15.80;;
12784;SDS011;6456;42.680;23.260;2022-08-30T07:46:58;17.27;;;15.48;;
12784;SDS011;6456;42.680;23.260;2022-08-30T07:49:27;16.70;;;14.88;;
12784;SDS011;6456;42.680;23.260;2022-08-30T07:51:55;16.15;;;14.40;;
12784;SDS011;6456;42.680;23.260;2022-08-30T07:54:22;17.92;;;15.73;;
12784;SDS011;6456;42.680;23.260;2022-08-30T07:56:49;19.02;;;14.95;;
12784;SDS011;6456;42.680;23.260;2022-08-30T07:59:18;18.20;;;14.68;;
12784;SDS011;6456;42.680;23.260;2022-08-30T08:01:45;18.10;;;15.27;;
12784;SDS011;6456;42.680;23.260;2022-08-30T08:04:13;15.35;;;13.77;;
12784;SDS011;6456;42.680;23.260;2022-08-30T08:06:40;16.88;;;15.20;;
12784;SDS011;6456;42.680;23.260;2022-08-30T08:09:09;19.83;;;17.67;;
12784;SDS011;6456;42.680;23.260;2022-08-30T08:11:36;17.00;;;15.23;;
12784;SDS011;6456;42.680;23.260;2022-08-30T08:14:05;15.65;;;14.18;;
12784;SDS011;6456;42.680;23.260;2022-08-30T08:16:33;17.05;;;14.05;;
12784;SDS011;6456;42.680;23.260;2022-08-30T08:19:01;16.27;;;14.68;;
12784;SDS011;6456;42.680;23.260;2022-08-30T08:21:34;15.90;;;14.25;;
12784;SDS011;6456;42.680;23.260;2022-08-30T08:24:02;16.10;;;14.63;;
12784;SDS011;6456;42.680;23.260;2022-08-30T08:26:29;16.08;;;14.38;;
12784;SDS011;6456;42.680;23.260;2022-08-30T08:28:56;13.98;;;12.48;;
12784;SDS011;6456;42.680;23.260;2022-08-30T08:31:24;13.18;;;11.85;;
12784;SDS011;6456;42.680;23.260;2022-08-30T08:33:52;13.15;;;11.80;;
12784;SDS011;6456;42.680;23.260;2022-08-30T08:36:19;11.55;;;10.52;;
12784;SDS011;6456;42.680;23.260;2022-08-30T08:38:48;12.73;;;11.13;;
12784;SDS011;6456;42.680;23.260;2022-08-30T08:41:20;13.00;;;11.73;;
12784;SDS011;6456;42.680;23.260;2022-08-30T08:43:55;12.07;;;10.93;;
12784;SDS011;6456;42.680;23.260;2022-08-30T08:46:24;14.27;;;11.75;;
12784;SDS011;6456;42.680;23.260;2022-08-30T08:48:56;13.15;;;11.10;;
12784;SDS011;6456;42.680;23.260;2022-08-30T08:51:27;13.73;;;11.43;;
12784;SDS011;6456;42.680;23.260;2022-08-30T08:54:17;12.40;;;10.82;;
12784;SDS011;6456;42.680;23.260;2022-08-30T08:56:49;16.13;;;11.75;;
12784;SDS011;6456;42.680;23.260;2022-08-30T08:59:17;12.43;;;11.10;;
12784;SDS011;6456;42.680;23.260;2022-08-30T09:01:44;12.27;;;11.00;;
12784;SDS011;6456;42.680;23.260;2022-08-30T09:04:14;12.75;;;11.48;;
12784;SDS011;6456;42.680;23.260;2022-08-30T09:06:44;12.18;;;10.90;;
12784;SDS011;6456;42.680;23.260;2022-08-30T09:09:21;13.00;;;11.85;;
12784;SDS011;6456;42.680;23.260;2022-08-30T09:11:51;14.70;;;13.13;;
12784;SDS011;6456;42.680;23.260;2022-08-30T09:14:20;15.35;;;13.63;;
12784;SDS011;6456;42.680;23.260;2022-08-30T09:16:51;15.85;;;14.15;;
12784;SDS011;6456;42.680;23.260;2022-08-30T09:19:26;14.65;;;13.35;;
12784;SDS011;6456;42.680;23.260;2022-08-30T09:21:56;16.35;;;14.43;;
12784;SDS011;6456;42.680;23.260;2022-08-30T09:24:25;16.95;;;13.57;;
12784;SDS011;6456;42.680;23.260;2022-08-30T09:26:52;16.65;;;14.50;;
12784;SDS011;6456;42.680;23.260;2022-08-30T09:29:19;15.88;;;14.13;;
12784;SDS011;6456;42.680;23.260;2022-08-30T09:31:48;17.00;;;14.77;;
12784;SDS011;6456;42.680;23.260;2022-08-30T09:34:20;18.73;;;16.73;;
12784;SDS011;6456;42.680;23.260;2022-08-30T09:36:48;22.83;;;20.48;;
12784;SDS011;6456;42.680;23.260;2022-08-30T09:39:18;19.00;;;16.98;;
12784;SDS011;6456;42.680;23.260;2022-08-30T09:41:53;17.83;;;16.02;;
12784;SDS011;6456;42.680;23.260;2022-08-30T09:44:35;19.30;;;15.60;;
12784;SDS011;6456;42.680;23.260;2022-08-30T09:47:04;21.77;;;19.58;;
12784;SDS011;6456;42.680;23.260;2022-08-30T09:49:43;19.15;;;17.35;;
12784;SDS011;6456;42.680;23.260;2022-08-30T09:52:17;21.77;;;19.23;;
12784;SDS011;6456;42.680;23.260;2022-08-30T09:55:06;19.98;;;18.08;;
12784;SDS011;6456;42.680;23.260;2022-08-30T09:57:50;18.80;;;16.90;;
12784;SDS011;6456;42.680;23.260;2022-08-30T10:00:28;19.33;;;16.90;;
12784;SDS011;6456;42.680;23.260;2022-08-30T10:03:07;19.00;;;17.00;;
12784;SDS011;6456;42.680;23.260;2022-08-30T10:05:47;16.80;;;14.85;;
12784;SDS011;6456;42.680;23.260;2022-08-30T10:08:24;17.73;;;16.00;;
12784;SDS011;6456;42.680;23.260;2022-08-30T10:11:00;18.35;;;16.40;;
12784;SDS011;6456;42.680;23.260;2022-08-30T10:13:40;18.90;;;16.83;;
12784;SDS011;6456;42.680;23.260;2022-08-30T10:16:18;17.88;;;16.08;;
12784;SDS011;6456;42.680;23.260;2022-08-30T10:18:58;19.83;;;17.73;;
12784;SDS011;6456;42.680;23.260;2022-08-30T10:21:33;17.98;;;16.00;;
12784;SDS011;6456;42.680;23.260;2022-08-30T10:24:05;21.15;;;18.73;;
12784;SDS011;6456;42.680;23.260;2022-08-30T10:26:36;19.45;;;17.25;;
12784;SDS011;6456;42.680;23.260;2022-08-30T10:29:12;19.17;;;17.25;;
12784;SDS011;6456;42.680;23.260;2022-08-30T10:31:46;20.98;;;18.67;;
12784;SDS011;6456;42.680;23.260;2022-08-30T10:34:18;21.33;;;19.23;;
12784;SDS011;6456;42.680;23.260;2022-08-30T10:36:52;19.45;;;17.25;;
12784;SDS011;6456;42.680;23.260;2022-08-30T10:39:25;18.40;;;16.48;;
12784;SDS011;6456;42.680;23.260;2022-08-30T10:41:59;20.90;;;17.00;;
12784;SDS011;6456;42.680;23.260;2022-08-30T10:44:33;19.73;;;17.75;;
12784;SDS011;6456;42.680;23.260;2022-08-30T10:47:08;22.80;;;18.27;;
12784;SDS011;6456;42.680;23.260;2022-08-30T10:49:43;19.50;;;17.48;;
12784;SDS011;6456;42.680;23.260;2022-08-30T10:52:16;20.25;;;17.30;;
12784;SDS011;6456;42.680;23.260;2022-08-30T10:54:49;20.73;;;18.50;;
12784;SDS011;6456;42.680;23.260;2022-08-30T10:57:19;23.60;;;21.17;;
12784;SDS011;6456;42.680;23.260;2022-08-30T10:59:48;25.02;;;22.55;;
12784;SDS011;6456;42.680;23.260;2022-08-30T11:02:38;25.05;;;22.67;;
12784;SDS011;6456;42.680;23.260;2022-08-30T11:05:30;22.45;;;20.08;;
12784;SDS011;6456;42.680;23.260;2022-08-30T11:08:12;20.38;;;18.50;;
12784;SDS011;6456;42.680;23.260;2022-08-30T11:10:52;18.70;;;16.90;;
12784;SDS011;6456;42.680;23.260;2022-08-30T11:13:32;18.10;;;16.23;;
12784;SDS011;6456;42.680;23.260;2022-08-30T11:16:05;18.50;;;16.48;;
12784;SDS011;6456;42.680;23.260;2022-08-30T11:18:40;19.83;;;16.80;;
12784;SDS011;6456;42.680;23.260;2022-08-30T11:21:21;19.33;;;15.85;;
12784;SDS011;6456;42.680;23.260;2022-08-30T11:24:04;17.17;;;15.45;;
12784;SDS011;6456;42.680;23.260;2022-08-30T11:26:57;16.75;;;15.18;;
12784;SDS011;6456;42.680;23.260;2022-08-30T11:29:28;16.00;;;14.32;;
12784;SDS011;6456;42.680;23.260;2022-08-30T11:34:55;19.92;;;17.05;;
12784;SDS011;6456;42.680;23.260;2022-08-30T11:37:31;19.20;;;15.90;;
12784;SDS011;6456;42.680;23.260;2022-08-30T11:40:03;17.40;;;15.57;;
12784;SDS011;6456;42.680;23.260;2022-08-30T11:42:45;15.18;;;13.63;;
12784;SDS011;6456;42.680;23.260;2022-08-30T11:54:25;15.20;;;13.57;;
12784;SDS011;6456;42.680;23.260;2022-08-30T11:57:00;15.40;;;14.00;;
12784;SDS011;6456;42.680;23.260;2022-08-30T11:59:38;14.68;;;13.32;;
12784;SDS011;6456;42.680;23.260;2022-08-30T12:14:32;14.93;;;13.50;;
12784;SDS011;6456;42.680;23.260;2022-08-30T12:17:09;13.05;;;11.68;;
12784;SDS011;6456;42.680;23.260;2022-08-30T12:20:04;12.52;;;11.23;;
12784;SDS011;6456;42.680;23.260;2022-08-30T12:22:42;15.82;;;11.40;;
12784;SDS011;6456;42.680;23.260;2022-08-30T12:25:18;12.43;;;11.00;;
12784;SDS011;6456;42.680;23.260;2022-08-30T12:27:50;10.95;;;9.85;;
12784;SDS011;6456;42.680;23.260;2022-08-30T12:30:31;14.45;;;10.10;;
12784;SDS011;6456;42.680;23.260;2022-08-30T12:33:02;12.90;;;10.80;;
12784;SDS011;6456;42.680;23.260;2022-08-30T12:35:29;16.88;;;10.38;;
12784;SDS011;6456;42.680;23.260;2022-08-30T12:38:00;11.45;;;9.32;;
12784;SDS011;6456;42.680;23.260;2022-08-30T12:40:30;10.55;;;9.45;;
12784;SDS011;6456;42.680;23.260;2022-08-30T12:42:59;10.70;;;9.55;;
12784;SDS011;6456;42.680;23.260;2022-08-30T12:45:29;10.77;;;9.73;;
12784;SDS011;6456;42.680;23.260;2022-08-30T12:48:04;11.45;;;10.10;;
12784;SDS011;6456;42.680;23.260;2022-08-30T12:50:33;10.73;;;9.32;;
12784;SDS011;6456;42.680;23.260;2022-08-30T12:53:05;12.38;;;10.00;;
12784;SDS011;6456;42.680;23.260;2022-08-30T12:55:47;12.07;;;9.80;;
12784;SDS011;6456;42.680;23.260;2022-08-30T12:58:31;11.80;;;10.35;;
12784;SDS011;6456;42.680;23.260;2022-08-30T13:01:10;11.57;;;10.48;;
12784;SDS011;6456;42.680;23.260;2022-08-30T13:03:42;11.52;;;10.50;;
12784;SDS011;6456;42.680;23.260;2022-08-30T13:06:34;12.45;;;10.70;;
12784;SDS011;6456;42.680;23.260;2022-08-30T13:09:04;11.93;;;10.82;;
12784;SDS011;6456;42.680;23.260;2022-08-30T13:11:31;11.45;;;10.43;;
12784;SDS011;6456;42.680;23.260;2022-08-30T13:17:04;11.18;;;10.27;;
12784;SDS011;6456;42.680;23.260;2022-08-30T13:19:33;12.40;;;11.10;;
12784;SDS011;6456;42.680;23.260;2022-08-30T13:22:02;11.80;;;10.60;;
12784;SDS011;6456;42.680;23.260;2022-08-30T13:24:31;12.30;;;11.18;;
12784;SDS011;6456;42.680;23.260;2022-08-30T13:27:01;12.90;;;11.70;;
12784;SDS011;6456;42.680;23.260;2022-08-30T13:29:33;11.70;;;10.57;;
12784;SDS011;6456;42.680;23.260;2022-08-30T13:32:01;13.20;;;10.95;;
12784;SDS011;6456;42.680;23.260;2022-08-30T13:34:28;15.25;;;11.50;;
12784;SDS011;6456;42.680;23.260;2022-08-30T13:36:57;12.20;;;10.82;;
12784;SDS011;6456;42.680;23.260;2022-08-30T13:39:25;11.75;;;10.75;;
12784;SDS011;6456;42.680;23.260;2022-08-30T13:41:54;13.00;;;11.13;;
12784;SDS011;6456;42.680;23.260;2022-08-30T13:44:21;12.07;;;10.93;;
12784;SDS011;6456;42.680;23.260;2022-08-30T13:46:49;12.50;;;10.63;;
12784;SDS011;6456;42.680;23.260;2022-08-30T13:49:19;11.75;;;10.45;;
12784;SDS011;6456;42.680;23.260;2022-08-30T13:51:48;14.70;;;10.50;;
12784;SDS011;6456;42.680;23.260;2022-08-30T13:54:17;12.27;;;10.68;;
12784;SDS011;6456;42.680;23.260;2022-08-30T13:56:47;12.98;;;10.73;;
12784;SDS011;6456;42.680;23.260;2022-08-30T13:59:15;12.80;;;11.43;;
12784;SDS011;6456;42.680;23.260;2022-08-30T14:01:43;11.52;;;10.32;;
12784;SDS011;6456;42.680;23.260;2022-08-30T14:04:10;11.88;;;10.70;;
12784;SDS011;6456;42.680;23.260;2022-08-30T14:06:37;11.75;;;10.52;;
12784;SDS011;6456;42.680;23.260;2022-08-30T14:09:04;10.40;;;9.48;;
12784;SDS011;6456;42.680;23.260;2022-08-30T14:11:32;11.68;;;10.52;;
12784;SDS011;6456;42.680;23.260;2022-08-30T14:13:59;11.30;;;10.25;;
12784;SDS011;6456;42.680;23.260;2022-08-30T14:16:29;13.43;;;10.07;;
12784;SDS011;6456;42.680;23.260;2022-08-30T14:18:56;11.95;;;10.70;;
12784;SDS011;6456;42.680;23.260;2022-08-30T14:21:24;11.73;;;10.32;;
12784;SDS011;6456;42.680;23.260;2022-08-30T14:23:51;13.93;;;10.90;;
12784;SDS011;6456;42.680;23.260;2022-08-30T14:26:23;10.98;;;9.88;;
12784;SDS011;6456;42.680;23.260;2022-08-30T14:28:52;13.57;;;10.70;;
12784;SDS011;6456;42.680;23.260;2022-08-30T14:31:19;12.80;;;9.77;;
12784;SDS011;6456;42.680;23.260;2022-08-30T14:33:47;12.35;;;10.50;;
12784;SDS011;6456;42.680;23.260;2022-08-30T14:36:15;11.27;;;10.18;;
12784;SDS011;6456;42.680;23.260;2022-08-30T14:38:42;12.90;;;10.82;;
12784;SDS011;6456;42.680;23.260;2022-08-30T14:41:09;11.18;;;9.85;;
12784;SDS011;6456;42.680;23.260;2022-08-30T14:43:36;12.20;;;10.77;;
12784;SDS011;6456;42.680;23.260;2022-08-30T14:46:04;10.90;;;9.90;;
12784;SDS011;6456;42.680;23.260;2022-08-30T14:48:31;12.93;;;11.40;;
12784;SDS011;6456;42.680;23.260;2022-08-30T14:50:59;16.33;;;11.63;;
12784;SDS011;6456;42.680;23.260;2022-08-30T14:53:26;11.95;;;10.70;;
12784;SDS011;6456;42.680;23.260;2022-08-30T14:55:53;11.73;;;10.60;;
12784;SDS011;6456;42.680;23.260;2022-08-30T14:58:20;11.35;;;10.18;;
12784;SDS011;6456;42.680;23.260;2022-08-30T15:00:48;13.15;;;11.48;;
12784;SDS011;6456;42.680;23.260;2022-08-30T15:03:16;11.60;;;10.43;;
12784;SDS011;6456;42.680;23.260;2022-08-30T15:05:46;12.60;;;11.43;;
12784;SDS011;6456;42.680;23.260;2022-08-30T15:08:16;12.93;;;11.55;;
12784;SDS011;6456;42.680;23.260;2022-08-30T15:10:42;12.35;;;11.00;;
12784;SDS011;6456;42.680;23.260;2022-08-30T15:13:09;11.98;;;10.70;;